Airport View

Enter AWOS ICAO identifier for current METAR.

ex. KFNL

KLEE 212353Z 06006KT 10SM CLR 26/18 A3015 RMK AO2 SLP207 T02610178 10317 20261 51005

22 Sep 2019 00:01

Frequency: 134.325

Phone: 352-787-1565

Other Area AWOS: KVVG - KINF - KORL - KOCF

TAF KLEE 212339Z 2200/2224 07009KT P6SM SKC FM221400 08011KT P6SM FEW035